Time;durP1;ratioP1;P1;durP2;ratioP2;P2;SDS_P1;SDS_P2;PMS_P1;PMS_P2;Temp;Humidity;BMP_temperature;BMP_pressure;BME280_temperature;BME280_humidity;BME280_pressure;Samples;Min_cycle;Max_cycle;Signal;HPM_P1;HPM_P2
2022/02/15 00:00:34;;;;;;;10.93;1.00;;;7.40;99.90;;;;;;5000520;28;20262;-66
2022/02/15 00:03:00;;;;;;;2.10;1.20;;;7.40;99.90;;;;;;5000183;28;21007;-66
2022/02/15 00:05:25;;;;;;;1.30;1.20;;;7.40;99.90;;;;;;5001622;28;20562;-66
2022/02/15 00:07:51;;;;;;;1.23;1.20;;;7.50;99.90;;;;;;5001291;28;20294;-66
2022/02/15 00:10:17;;;;;;;2.53;1.20;;;7.50;99.90;;;;;;5003427;28;20183;-66
2022/02/15 00:12:43;;;;;;;1.50;1.40;;;7.50;99.90;;;;;;5005034;28;20641;-66
2022/02/15 00:15:10;;;;;;;1.60;1.13;;;7.50;99.90;;;;;;5002401;28;20490;-66
2022/02/15 00:17:37;;;;;;;2.73;1.60;;;7.50;99.90;;;;;;5004569;28;20531;-66
2022/02/15 00:20:05;;;;;;;1.27;1.17;;;7.50;99.90;;;;;;5002034;28;20463;-66
2022/02/15 00:22:31;;;;;;;1.70;1.50;;;7.50;99.90;;;;;;5011592;28;20441;-66
2022/02/15 00:24:57;;;;;;;2.17;1.97;;;7.50;99.90;;;;;;4996594;28;20457;-66
2022/02/15 00:27:22;;;;;;;2.20;1.77;;;7.40;99.90;;;;;;5005797;28;20442;-66
2022/02/15 00:29:48;;;;;;;1.87;1.77;;;7.40;99.90;;;;;;5009020;28;20434;-66
2022/02/15 00:32:13;;;;;;;5.27;1.70;;;7.40;99.90;;;;;;5001098;28;20184;-66
2022/02/15 00:34:39;;;;;;;2.10;1.67;;;7.30;99.90;;;;;;5008921;28;20249;-66
2022/02/15 00:37:04;;;;;;;1.43;1.33;;;7.40;99.90;;;;;;5005793;28;20233;-66
2022/02/15 00:39:30;;;;;;;1.73;1.63;;;7.40;99.90;;;;;;4993739;28;20195;-66
2022/02/15 00:41:56;;;;;;;1.43;1.33;;;7.40;99.90;;;;;;5002513;28;20246;-66
2022/02/15 00:44:22;;;;;;;1.63;1.20;;;7.40;99.90;;;;;;5000500;28;20282;-66
2022/02/15 00:46:48;;;;;;;1.83;1.63;;;7.40;99.90;;;;;;5003802;28;20179;-66
2022/02/15 00:49:14;;;;;;;1.90;1.80;;;7.50;99.90;;;;;;5002707;28;20434;-66
2022/02/15 00:51:40;;;;;;;2.20;1.63;;;7.50;99.90;;;;;;4993543;28;20928;-66
2022/02/15 00:54:05;;;;;;;1.60;1.50;;;7.50;99.90;;;;;;4993700;28;20207;-66
2022/02/15 00:56:31;;;;;;;2.30;1.70;;;7.50;99.90;;;;;;5006482;28;20187;-66
2022/02/15 00:58:57;;;;;;;1.70;1.60;;;7.40;99.90;;;;;;5012079;28;20207;-66
2022/02/15 01:01:22;;;;;;;2.27;2.07;;;7.40;99.90;;;;;;4994868;28;20538;-66
2022/02/15 01:03:48;;;;;;;1.47;1.37;;;7.40;99.90;;;;;;4999014;28;20532;-66
2022/02/15 01:06:14;;;;;;;2.40;1.43;;;7.40;99.90;;;;;;5010267;28;20171;-66
2022/02/15 01:08:42;;;;;;;1.90;1.40;;;7.20;99.90;;;;;;5022352;28;20175;-65
2022/02/15 01:11:11;;;;;;;1.40;1.30;;;7.20;99.90;;;;;;4996058;28;20176;-64
2022/02/15 01:13:37;;;;;;;2.03;1.83;;;7.10;99.90;;;;;;5015970;28;20459;-65
2022/02/15 01:16:03;;;;;;;2.03;1.80;;;7.00;99.90;;;;;;4996442;28;20557;-65
2022/02/15 01:18:28;;;;;;;1.97;1.80;;;7.00;99.90;;;;;;4993378;28;20175;-65
2022/02/15 01:20:54;;;;;;;1.60;1.50;;;7.00;99.90;;;;;;5007570;28;20175;-65
2022/02/15 01:23:20;;;;;;;2.60;1.63;;;6.90;99.90;;;;;;4995191;28;20612;-64
2022/02/15 01:25:46;;;;;;;2.80;1.60;;;6.90;99.90;;;;;;5006352;28;20585;-64
2022/02/15 01:28:11;;;;;;;2.63;2.00;;;6.80;99.90;;;;;;5001821;28;20176;-65
2022/02/15 01:30:37;;;;;;;4.07;2.30;;;6.80;99.90;;;;;;5005766;28;20636;-65
2022/02/15 01:33:03;;;;;;;5.27;2.17;;;6.70;99.90;;;;;;5011048;28;20179;-65
2022/02/15 01:35:28;;;;;;;2.10;1.90;;;6.60;99.90;;;;;;4992629;28;20176;-64
2022/02/15 01:37:54;;;;;;;2.37;2.17;;;6.60;99.90;;;;;;4999299;28;20167;-64
2022/02/15 01:40:19;;;;;;;3.10;1.93;;;6.60;99.90;;;;;;5005054;28;20283;-65
2022/02/15 01:42:45;;;;;;;2.50;1.60;;;6.50;99.90;;;;;;4999074;28;20256;-64
2022/02/15 01:45:13;;;;;;;2.23;1.90;;;6.50;99.90;;;;;;4994540;28;20665;-64
2022/02/15 01:47:39;;;;;;;2.87;2.03;;;6.50;99.90;;;;;;5010773;28;20704;-64
2022/02/15 01:50:05;;;;;;;1.97;1.67;;;6.50;99.90;;;;;;5004717;28;20505;-64
2022/02/15 01:52:32;;;;;;;2.67;1.60;;;6.50;99.90;;;;;;5011956;28;20439;-64
2022/02/15 01:54:59;;;;;;;1.60;1.50;;;6.50;99.90;;;;;;4998333;28;20801;-65
2022/02/15 01:57:25;;;;;;;3.27;2.03;;;6.50;99.90;;;;;;5008883;28;20434;-65
2022/02/15 01:59:54;;;;;;;3.83;1.80;;;6.50;99.90;;;;;;5003312;28;20507;-64
2022/02/15 02:02:21;;;;;;;1.90;1.80;;;6.50;99.90;;;;;;5003838;28;20465;-64
2022/02/15 02:07:31;;;;;;;4.80;1.60;;;6.50;99.90;;;;;;4999408;28;21099;-65
2022/02/15 02:09:57;;;;;;;2.50;1.80;;;6.50;99.90;;;;;;5003723;28;20513;-65
2022/02/15 02:12:22;;;;;;;3.47;2.67;;;6.50;99.90;;;;;;5003296;28;20703;-65
2022/02/15 02:15:14;;;;;;;3.97;2.30;;;6.60;99.90;;;;;;5003212;28;20446;-64
2022/02/15 02:17:39;;;;;;;3.23;1.40;;;6.60;99.90;;;;;;5003826;28;20186;-65
2022/02/15 02:20:05;;;;;;;1.63;1.53;;;6.60;99.90;;;;;;5006842;28;20480;-65
2022/02/15 02:22:31;;;;;;;2.90;2.13;;;6.60;99.90;;;;;;5006082;28;20183;-64
2022/02/15 02:24:58;;;;;;;2.17;1.93;;;6.50;99.90;;;;;;5004467;28;21177;-65
2022/02/15 02:27:26;;;;;;;2.40;2.00;;;6.50;99.90;;;;;;5007973;28;20184;-64
2022/02/15 02:29:53;;;;;;;4.70;1.90;;;6.50;99.90;;;;;;5014389;28;20433;-65
2022/02/15 02:32:20;;;;;;;1.90;1.80;;;6.50;99.90;;;;;;5013242;28;20435;-65
2022/02/15 02:34:45;;;;;;;1.80;1.70;;;6.50;99.90;;;;;;5017949;28;20445;-65
2022/02/15 02:37:14;;;;;;;2.20;1.50;;;6.50;99.90;;;;;;5005309;28;20509;-64
2022/02/15 02:39:44;;;;;;;5.13;1.60;;;6.40;99.90;;;;;;5014292;28;20289;-64
2022/02/15 02:42:10;;;;;;;2.37;1.60;;;6.30;99.90;;;;;;5009880;28;20906;-65
2022/02/15 02:44:36;;;;;;;1.67;1.57;;;6.30;99.90;;;;;;5003794;28;20541;-65
2022/02/15 02:47:02;;;;;;;3.20;1.97;;;6.20;99.90;;;;;;5002576;28;20951;-65
2022/02/15 02:49:27;;;;;;;1.90;1.77;;;6.20;99.90;;;;;;5011658;28;20183;-65
2022/02/15 02:51:53;;;;;;;1.80;1.70;;;6.20;99.90;;;;;;5017094;28;20551;-65
2022/02/15 02:54:18;;;;;;;1.70;1.60;;;6.10;99.90;;;;;;5006887;28;20245;-64
2022/02/15 02:56:44;;;;;;;1.60;1.40;;;6.10;99.90;;;;;;5011522;28;20237;-64
2022/02/15 02:59:09;;;;;;;2.77;1.60;;;6.00;99.90;;;;;;5002729;28;20656;-64
2022/02/15 03:01:35;;;;;;;1.83;1.50;;;6.10;99.90;;;;;;5016073;28;20179;-65
2022/02/15 03:04:01;;;;;;;5.07;2.43;;;6.10;99.90;;;;;;4998484;28;20195;-65
2022/02/15 03:06:27;;;;;;;3.63;2.47;;;6.10;99.90;;;;;;5009142;28;20182;-65
2022/02/15 03:08:53;;;;;;;1.90;1.43;;;6.20;99.90;;;;;;5004161;28;20172;-65
2022/02/15 03:11:19;;;;;;;1.70;1.20;;;6.20;99.90;;;;;;5003440;28;20446;-64
2022/02/15 03:13:44;;;;;;;3.27;2.17;;;6.30;99.90;;;;;;5003948;28;20735;-65
2022/02/15 03:16:10;;;;;;;1.90;1.70;;;6.40;99.90;;;;;;5005213;28;20222;-65
2022/02/15 03:18:35;;;;;;;1.77;1.67;;;6.40;99.90;;;;;;5008164;28;20226;-65
2022/02/15 03:21:01;;;;;;;1.60;1.50;;;6.50;99.90;;;;;;4998294;28;20186;-64
2022/02/15 03:23:27;;;;;;;3.07;2.03;;;6.60;99.90;;;;;;4995550;28;20195;-65
2022/02/15 03:25:52;;;;;;;2.30;1.90;;;6.60;99.90;;;;;;4994875;28;20638;-65
2022/02/15 03:28:18;;;;;;;2.50;2.10;;;6.60;99.90;;;;;;4995480;28;20179;-64
2022/02/15 03:30:43;;;;;;;2.77;1.83;;;6.50;99.90;;;;;;5011173;28;20175;-64
2022/02/15 03:33:09;;;;;;;2.50;1.83;;;6.50;99.90;;;;;;4994908;28;20204;-65
2022/02/15 03:35:35;;;;;;;4.53;2.27;;;6.50;99.90;;;;;;5003153;28;20163;-65
2022/02/15 03:38:00;;;;;;;6.70;1.90;;;6.50;99.90;;;;;;4994885;28;20254;-64
2022/02/15 03:43:04;;;;;;;3.67;2.13;;;6.60;99.90;;;;;;4995336;28;20557;-64
2022/02/15 03:43:12;;;;;;;3.40;1.90;;;6.60;99.90;;;;;;4979204;28;20226;-65
2022/02/15 03:45:38;;;;;;;4.50;2.10;;;6.60;99.90;;;;;;4994383;28;20451;-65
2022/02/15 03:48:05;;;;;;;2.47;1.83;;;6.70;99.90;;;;;;5001277;28;20179;-64
2022/02/15 03:50:30;;;;;;;3.50;2.13;;;6.60;99.90;;;;;;4999966;28;20513;-65
2022/02/15 03:52:56;;;;;;;3.77;2.10;;;6.60;99.90;;;;;;4994621;28;20450;-64
2022/02/15 03:55:22;;;;;;;2.80;1.70;;;6.60;99.90;;;;;;4994344;28;20676;-64
2022/02/15 03:57:48;;;;;;;1.90;1.63;;;6.60;99.90;;;;;;5005817;28;20175;-65
2022/02/15 04:00:14;;;;;;;3.03;2.00;;;6.60;99.90;;;;;;5000452;28;20468;-65
2022/02/15 04:02:40;;;;;;;3.03;1.70;;;6.50;99.90;;;;;;5003715;28;20661;-67
2022/02/15 04:05:06;;;;;;;2.83;1.40;;;6.50;99.90;;;;;;4997503;28;20493;-64
2022/02/15 04:07:31;;;;;;;1.70;1.50;;;6.60;99.90;;;;;;5006458;28;20269;-66
2022/02/15 04:09:57;;;;;;;2.40;1.47;;;6.50;99.90;;;;;;5008787;28;20876;-64
2022/02/15 04:12:22;;;;;;;2.10;1.90;;;6.60;99.90;;;;;;5008866;28;20287;-64
2022/02/15 04:14:48;;;;;;;2.30;1.40;;;6.60;99.90;;;;;;4996803;28;20203;-64
2022/02/15 04:17:14;;;;;;;1.50;1.40;;;6.50;99.90;;;;;;4997846;28;20184;-64
2022/02/15 04:19:40;;;;;;;1.60;1.50;;;6.60;99.90;;;;;;4994485;28;20564;-64
2022/02/15 04:22:06;;;;;;;1.93;1.47;;;6.60;99.90;;;;;;5008771;28;20548;-67
2022/02/15 04:24:32;;;;;;;1.40;1.30;;;6.50;99.90;;;;;;5008982;28;20948;-64
2022/02/15 04:26:57;;;;;;;3.43;1.87;;;6.50;99.90;;;;;;5007509;28;20426;-64
2022/02/15 04:29:25;;;;;;;2.53;1.63;;;6.50;99.90;;;;;;5005682;28;20172;-66
2022/02/15 04:31:51;;;;;;;3.73;1.60;;;6.50;99.90;;;;;;5004152;28;20175;-64
2022/02/15 04:34:17;;;;;;;2.23;2.10;;;6.50;99.90;;;;;;5001829;28;20461;-64
2022/02/15 04:36:43;;;;;;;1.80;1.50;;;6.50;99.90;;;;;;5002104;28;20434;-64
2022/02/15 04:39:08;;;;;;;3.97;1.50;;;6.60;99.90;;;;;;5002225;28;20246;-64
2022/02/15 04:41:34;;;;;;;3.67;1.93;;;6.50;99.90;;;;;;5002928;28;20183;-64
2022/02/15 04:43:59;;;;;;;2.80;2.60;;;6.50;99.90;;;;;;5000601;28;20679;-66
2022/02/15 04:46:25;;;;;;;6.67;1.97;;;6.50;99.90;;;;;;4997137;28;20266;-64
2022/02/15 04:48:50;;;;;;;2.00;1.90;;;6.40;99.90;;;;;;4995666;28;20203;-64
2022/02/15 04:51:16;;;;;;;2.60;2.37;;;6.40;99.90;;;;;;5007909;28;20184;-64
2022/02/15 04:53:42;;;;;;;2.60;2.03;;;6.40;99.90;;;;;;4996353;28;20202;-64
2022/02/15 04:56:07;;;;;;;4.40;2.60;;;6.30;99.90;;;;;;5012184;28;20186;-64
2022/02/15 04:58:33;;;;;;;3.90;2.70;;;6.30;99.90;;;;;;4996002;28;20182;-64
2022/02/15 05:00:59;;;;;;;2.73;2.50;;;6.30;99.90;;;;;;5010630;28;20175;-64
2022/02/15 05:03:24;;;;;;;3.30;2.43;;;6.30;99.90;;;;;;5011186;28;20218;-64
2022/02/15 05:05:50;;;;;;;4.30;2.90;;;6.40;99.90;;;;;;4999998;28;20461;-64
2022/02/15 05:08:16;;;;;;;2.87;2.60;;;6.40;99.90;;;;;;4997924;28;20210;-64
2022/02/15 05:10:41;;;;;;;3.40;2.50;;;6.30;99.90;;;;;;4996686;28;20182;-66
2022/02/15 05:13:11;;;;;;;4.60;2.80;;;6.30;99.90;;;;;;5009645;28;20585;-66
2022/02/15 05:15:37;;;;;;;3.13;2.83;;;6.30;99.90;;;;;;5003573;28;20179;-64
2022/02/15 05:18:03;;;;;;;2.80;2.60;;;6.40;99.90;;;;;;5011257;28;20436;-66
2022/02/15 05:20:29;;;;;;;5.47;2.83;;;6.40;99.90;;;;;;4995243;28;20549;-64
2022/02/15 05:22:55;;;;;;;2.50;2.20;;;6.40;99.90;;;;;;4997669;28;20570;-64
2022/02/15 05:25:20;;;;;;;2.83;2.43;;;6.40;99.90;;;;;;5001882;28;20171;-66
2022/02/15 05:27:46;;;;;;;3.30;2.60;;;6.40;99.90;;;;;;4999779;28;20183;-67
2022/02/15 05:30:12;;;;;;;3.60;3.00;;;6.40;99.90;;;;;;5009410;28;20556;-66
2022/02/15 05:32:38;;;;;;;5.67;2.70;;;6.50;99.90;;;;;;5007652;28;20187;-64
2022/02/15 05:35:05;;;;;;;3.27;2.27;;;6.50;99.90;;;;;;4992400;28;20214;-66
2022/02/15 05:37:31;;;;;;;2.67;2.13;;;6.60;99.90;;;;;;5003687;28;20433;-64
2022/02/15 05:39:56;;;;;;;4.00;2.17;;;6.60;99.90;;;;;;4997126;28;20465;-64
2022/02/15 05:42:22;;;;;;;1.87;1.67;;;6.60;99.90;;;;;;5001251;28;20179;-64
2022/02/15 05:44:47;;;;;;;2.67;2.43;;;6.60;99.90;;;;;;4993059;28;20199;-64
2022/02/15 05:47:13;;;;;;;7.67;3.07;;;6.50;99.90;;;;;;5009416;28;20179;-67
2022/02/15 05:52:23;;;;;;;2.53;2.30;;;6.50;99.90;;;;;;4991204;28;20605;-64
2022/02/15 05:54:48;;;;;;;3.57;2.50;;;6.50;99.90;;;;;;5005416;28;20453;-67
2022/02/15 05:57:15;;;;;;;3.33;2.67;;;6.50;99.90;;;;;;4994511;28;20182;-67
2022/02/15 05:59:40;;;;;;;4.33;2.60;;;6.40;99.90;;;;;;5007254;28;20207;-64
2022/02/15 06:02:06;;;;;;;2.43;2.23;;;6.50;99.90;;;;;;5001735;28;20447;-64
2022/02/15 06:04:31;;;;;;;6.70;2.60;;;6.40;99.90;;;;;;5000828;28;20198;-64
2022/02/15 06:06:57;;;;;;;4.47;2.80;;;6.40;99.90;;;;;;4994873;28;20221;-67
2022/02/15 06:09:22;;;;;;;5.80;2.50;;;6.40;99.90;;;;;;5004630;28;20182;-64
2022/02/15 06:11:48;;;;;;;6.17;3.77;;;6.40;99.90;;;;;;5005228;28;20186;-64
2022/02/15 06:14:13;;;;;;;3.20;2.23;;;6.50;99.90;;;;;;5002374;28;20206;-67
2022/02/15 06:16:39;;;;;;;2.97;2.70;;;6.50;99.90;;;;;;4992291;28;20171;-64
2022/02/15 06:19:04;;;;;;;2.37;2.17;;;6.50;99.90;;;;;;5003458;28;20202;-64
2022/02/15 06:21:30;;;;;;;2.23;2.07;;;6.50;99.90;;;;;;5005042;28;20169;-63
2022/02/15 06:23:57;;;;;;;2.53;2.33;;;6.50;99.90;;;;;;5000847;28;20580;-67
2022/02/15 06:26:23;;;;;;;3.53;2.30;;;6.50;99.90;;;;;;5002113;28;20169;-64
2022/02/15 06:28:48;;;;;;;4.60;3.27;;;6.50;99.90;;;;;;4994646;28;20513;-64
2022/02/15 06:31:14;;;;;;;4.10;2.20;;;6.50;99.90;;;;;;4964632;28;20947;-63
2022/02/15 06:33:40;;;;;;;3.20;2.90;;;6.50;99.90;;;;;;4983698;28;20247;-64
2022/02/15 06:36:06;;;;;;;5.30;3.10;;;6.50;99.90;;;;;;5010619;28;20175;-64
2022/02/15 06:38:31;;;;;;;2.93;2.40;;;6.50;99.90;;;;;;4999198;28;20184;-67
2022/02/15 06:40:57;;;;;;;3.90;2.20;;;6.50;99.90;;;;;;4988525;28;20489;-66
2022/02/15 06:43:23;;;;;;;3.27;2.40;;;6.40;99.90;;;;;;5004755;28;20191;-66
2022/02/15 06:45:48;;;;;;;3.53;2.47;;;6.40;99.90;;;;;;5009634;28;20175;-66
2022/02/15 06:48:14;;;;;;;4.17;2.43;;;6.30;99.90;;;;;;5011375;28;20710;-66
2022/02/15 06:50:39;;;;;;;2.87;2.50;;;6.30;99.90;;;;;;4995825;28;20179;-66
2022/02/15 06:53:05;;;;;;;3.00;2.80;;;6.40;99.90;;;;;;4995988;28;20555;-66
2022/02/15 06:55:31;;;;;;;6.57;3.80;;;6.40;99.90;;;;;;4996187;28;20175;-66
2022/02/15 06:57:56;;;;;;;5.20;3.37;;;6.40;99.90;;;;;;5004183;28;20202;-66
2022/02/15 07:00:22;;;;;;;6.53;3.77;;;6.40;99.90;;;;;;4997595;28;20203;-66
2022/02/15 07:02:47;;;;;;;4.50;3.30;;;6.40;99.90;;;;;;5000849;28;20180;-66
2022/02/15 07:05:13;;;;;;;9.83;5.73;;;6.30;99.90;;;;;;5003076;28;20241;-66
2022/02/15 07:07:39;;;;;;;4.67;4.20;;;6.20;99.90;;;;;;4997808;28;20180;-66
2022/02/15 07:10:05;;;;;;;8.13;4.00;;;6.10;99.90;;;;;;4999034;28;20212;-66
2022/02/15 07:12:31;;;;;;;6.10;3.73;;;6.10;99.90;;;;;;5003643;28;20429;-66
2022/02/15 07:14:58;;;;;;;5.00;4.47;;;6.00;99.90;;;;;;5000232;28;20469;-66
2022/02/15 07:17:24;;;;;;;4.03;3.40;;;6.00;99.90;;;;;;5008595;28;20965;-66
2022/02/15 07:19:50;;;;;;;5.17;3.47;;;5.90;99.90;;;;;;5001278;28;20454;-67
2022/02/15 07:22:16;;;;;;;3.83;3.47;;;5.90;99.90;;;;;;5002121;28;20425;-67
2022/02/15 07:24:41;;;;;;;5.87;3.60;;;6.00;99.90;;;;;;5012055;28;20793;-66
2022/02/15 07:27:07;;;;;;;4.07;3.30;;;6.00;99.90;;;;;;4993594;28;20778;-66
2022/02/15 07:29:33;;;;;;;8.50;4.00;;;6.00;99.90;;;;;;4997131;28;20207;-66
2022/02/15 07:31:58;;;;;;;5.70;4.40;;;6.00;99.90;;;;;;5003642;28;20266;-70
2022/02/15 07:34:24;;;;;;;8.30;3.70;;;6.10;99.90;;;;;;5001132;28;20684;-65
2022/02/15 07:36:51;;;;;;;4.40;3.30;;;6.10;99.90;;;;;;4997897;28;20629;-66
2022/02/15 07:39:17;;;;;;;3.30;2.90;;;6.20;99.90;;;;;;4994006;28;20218;-66
2022/02/15 07:41:42;;;;;;;3.63;3.30;;;6.30;99.90;;;;;;5001257;28;20433;-65
2022/02/15 07:44:08;;;;;;;3.63;3.33;;;6.40;99.90;;;;;;4995882;28;20451;-65
2022/02/15 07:46:34;;;;;;;5.30;2.93;;;6.50;99.90;;;;;;5001699;28;20677;-66
2022/02/15 07:48:59;;;;;;;3.43;2.73;;;6.50;99.90;;;;;;4998198;28;20217;-65
2022/02/15 07:51:26;;;;;;;4.57;2.43;;;6.50;99.90;;;;;;4993356;28;20200;-66
2022/02/15 07:53:51;;;;;;;5.17;3.10;;;6.50;99.90;;;;;;4995945;28;20504;-66
2022/02/15 07:56:17;;;;;;;3.10;2.30;;;6.50;99.90;;;;;;4999289;28;20222;-66
2022/02/15 07:58:43;;;;;;;3.97;3.17;;;6.50;99.90;;;;;;5010101;28;20184;-66
2022/02/15 08:01:08;;;;;;;6.53;2.80;;;6.50;99.90;;;;;;4995464;28;20179;-66
2022/02/15 08:03:34;;;;;;;4.13;2.63;;;6.50;99.90;;;;;;4999684;28;20203;-65
2022/02/15 08:06:00;;;;;;;5.30;2.50;;;6.50;99.90;;;;;;4998032;28;20212;-66
2022/02/15 08:08:26;;;;;;;3.80;2.80;;;6.50;99.90;;;;;;5006188;28;20448;-66
2022/02/15 08:10:51;;;;;;;4.27;2.80;;;6.50;99.90;;;;;;4993927;28;20198;-66
2022/02/15 08:13:21;;;;;;;3.03;2.47;;;6.50;99.90;;;;;;4997995;28;21032;-65
2022/02/15 08:15:49;;;;;;;3.30;2.30;;;6.50;99.90;;;;;;4998512;28;20259;-66
2022/02/15 08:18:15;;;;;;;6.17;2.27;;;6.60;99.90;;;;;;5003897;28;20441;-66
2022/02/15 08:20:41;;;;;;;2.80;2.60;;;6.60;99.90;;;;;;4998775;28;20943;-66
2022/02/15 08:23:07;;;;;;;8.00;2.43;;;6.70;99.90;;;;;;5003451;28;20660;-66
2022/02/15 08:25:34;;;;;;;3.40;2.33;;;6.70;99.90;;;;;;4999428;28;20206;-66
2022/02/15 08:28:01;;;;;;;2.00;1.90;;;6.70;99.90;;;;;;5013025;28;20441;-66
2022/02/15 08:30:26;;;;;;;2.17;1.73;;;6.80;99.90;;;;;;4997407;28;20474;-66
2022/02/15 08:32:52;;;;;;;3.63;1.90;;;6.80;99.90;;;;;;5006696;28;20466;-66
2022/02/15 08:35:19;;;;;;;2.90;1.67;;;6.90;99.90;;;;;;4993793;28;20202;-66
2022/02/15 08:37:45;;;;;;;3.20;2.10;;;6.90;99.90;;;;;;4994706;28;20187;-66
2022/02/15 08:40:12;;;;;;;2.93;2.07;;;7.00;99.90;;;;;;5002156;28;20476;-66
2022/02/15 08:42:38;;;;;;;2.50;2.00;;;7.10;99.90;;;;;;5004364;28;20785;-66
2022/02/15 08:45:07;;;;;;;2.43;1.80;;;7.30;99.90;;;;;;4996781;28;20541;-66
2022/02/15 08:47:33;;;;;;;3.10;1.70;;;7.30;99.90;;;;;;5005341;28;20957;-66
2022/02/15 08:49:58;;;;;;;1.60;1.50;;;7.40;99.90;;;;;;4993161;28;20438;-66
2022/02/15 08:52:24;;;;;;;3.20;1.90;;;7.40;99.90;;;;;;4994647;28;20660;-66
2022/02/15 08:54:51;;;;;;;2.10;1.90;;;7.40;99.90;;;;;;5000392;28;20602;-66
2022/02/15 08:57:16;;;;;;;3.03;2.33;;;7.50;99.90;;;;;;5002672;28;20489;-66
2022/02/15 08:59:43;;;;;;;2.20;1.93;;;7.40;99.90;;;;;;4997585;28;20473;-66
2022/02/15 09:02:08;;;;;;;2.07;1.97;;;7.40;99.90;;;;;;5002929;28;20172;-66
2022/02/15 09:04:35;;;;;;;2.00;1.67;;;7.50;99.90;;;;;;5001828;28;20525;-66
2022/02/15 09:07:01;;;;;;;1.97;1.70;;;7.70;99.90;;;;;;5000251;28;20175;-66
2022/02/15 09:09:27;;;;;;;2.50;2.30;;;7.80;99.90;;;;;;5001306;28;21005;-66
2022/02/15 09:11:53;;;;;;;2.27;1.40;;;7.90;99.90;;;;;;5003039;28;20438;-66
2022/02/15 09:14:19;;;;;;;3.27;1.67;;;8.00;99.90;;;;;;5000241;28;20195;-66
2022/02/15 09:16:45;;;;;;;2.50;1.20;;;8.00;99.90;;;;;;5002385;28;20191;-65
2022/02/15 09:19:11;;;;;;;1.73;1.47;;;7.90;99.90;;;;;;4996829;28;20253;-66
2022/02/15 09:21:36;;;;;;;3.67;1.57;;;7.80;99.90;;;;;;5001379;28;20439;-66
2022/02/15 09:24:03;;;;;;;2.00;1.90;;;7.80;99.90;;;;;;5002341;28;20454;-66
2022/02/15 09:26:28;;;;;;;2.30;1.80;;;7.70;99.90;;;;;;5003342;28;20187;-66
2022/02/15 09:28:54;;;;;;;3.90;2.10;;;7.90;99.90;;;;;;5003236;28;20806;-65
2022/02/15 09:31:21;;;;;;;3.30;1.90;;;8.10;99.90;;;;;;4998288;28;20641;-66
2022/02/15 09:33:51;;;;;;;2.20;1.77;;;8.10;99.90;;;;;;5001622;28;20287;-66
2022/02/15 09:36:24;;;;;;;1.77;1.53;;;8.20;99.90;;;;;;5002340;28;20840;-66
2022/02/15 09:38:50;;;;;;;2.10;1.63;;;8.60;99.90;;;;;;5002064;28;20461;-66
2022/02/15 09:41:16;;;;;;;3.37;1.80;;;9.10;99.90;;;;;;4995266;28;20442;-66
2022/02/15 09:43:42;;;;;;;1.70;1.60;;;9.10;99.90;;;;;;5001509;28;20203;-66
2022/02/15 09:46:11;;;;;;;2.57;1.73;;;8.90;99.90;;;;;;5001163;28;20513;-66
2022/02/15 09:48:38;;;;;;;2.27;1.87;;;8.80;99.90;;;;;;5000342;28;20478;-66
2022/02/15 09:51:05;;;;;;;1.87;1.57;;;8.70;99.90;;;;;;4999239;28;20445;-66
2022/02/15 09:53:31;;;;;;;2.13;1.80;;;9.00;99.90;;;;;;5004676;28;20445;-66
2022/02/15 09:55:56;;;;;;;5.40;1.93;;;10.10;99.90;;;;;;5005570;28;21000;-66
2022/02/15 09:58:22;;;;;;;2.27;2.07;;;11.10;99.90;;;;;;5000304;28;20266;-66
2022/02/15 10:00:48;;;;;;;3.60;1.97;;;12.20;99.90;;;;;;4998579;28;20202;-66
2022/02/15 10:03:15;;;;;;;1.80;1.70;;;13.00;99.90;;;;;;5002133;28;20676;-66
2022/02/15 10:05:46;;;;;;;2.20;2.03;;;13.70;99.90;;;;;;5002876;28;21022;-66
2022/02/15 10:08:12;;;;;;;3.30;2.07;;;12.50;99.90;;;;;;4995951;28;20429;-66
2022/02/15 10:10:38;;;;;;;3.10;2.03;;;12.30;99.90;;;;;;4995595;28;20449;-66
2022/02/15 10:13:11;;;;;;;1.67;1.57;;;12.60;99.90;;;;;;5006768;28;20182;-66
2022/02/15 10:15:42;;;;;;;3.53;2.27;;;12.60;99.90;;;;;;5000593;28;20437;-66
2022/02/15 10:18:13;;;;;;;2.40;2.10;;;11.60;99.90;;;;;;4995248;28;20981;-66
2022/02/15 10:20:42;;;;;;;3.50;2.10;;;10.80;99.90;;;;;;4995142;28;20458;-66
2022/02/15 10:23:21;;;;;;;3.87;2.00;;;10.30;99.90;;;;;;5001991;28;20433;-65
2022/02/15 10:25:48;;;;;;;2.33;2.13;;;9.80;99.90;;;;;;5005634;28;20441;-66
2022/02/15 10:28:19;;;;;;;1.93;1.77;;;9.60;99.90;;;;;;5003542;28;20431;-67
2022/02/15 10:30:54;;;;;;;2.00;1.80;;;9.50;99.90;;;;;;5000559;28;20445;-67
2022/02/15 10:33:22;;;;;;;2.13;1.53;;;9.30;99.90;;;;;;5005678;28;20991;-66
2022/02/15 10:36:15;;;;;;;1.60;1.50;;;9.10;99.90;;;;;;5000290;28;20447;-67
2022/02/15 10:38:49;;;;;;;4.23;2.20;;;8.90;99.90;;;;;;5008648;28;20437;-67
2022/02/15 10:41:17;;;;;;;1.83;1.73;;;8.80;99.90;;;;;;5000017;28;20472;-66
2022/02/15 10:43:51;;;;;;;2.07;1.90;;;8.70;99.90;;;;;;5006414;28;20431;-66
2022/02/15 10:46:28;;;;;;;6.43;1.80;;;8.70;99.90;;;;;;5004781;28;20441;-67
2022/02/15 10:48:55;;;;;;;4.63;1.73;;;8.60;99.90;;;;;;5007925;28;20806;-67
2022/02/15 10:51:22;;;;;;;3.00;2.67;;;8.60;99.90;;;;;;5000471;28;20798;-67
2022/02/15 10:53:48;;;;;;;2.97;1.83;;;8.50;99.90;;;;;;5009837;28;20464;-66
2022/02/15 10:56:14;;;;;;;3.03;2.40;;;8.80;99.90;;;;;;5011636;28;20441;-66
2022/02/15 10:58:40;;;;;;;1.40;1.30;;;8.80;99.90;;;;;;5003276;28;20261;-66
2022/02/15 11:01:10;;;;;;;2.30;1.20;;;8.80;99.90;;;;;;4996470;28;20564;-67
2022/02/15 11:03:38;;;;;;;2.33;2.23;;;8.70;99.90;;;;;;5005478;28;20449;-67
2022/02/15 11:06:05;;;;;;;3.00;1.60;;;8.60;99.90;;;;;;4999909;28;20438;-66
2022/02/15 11:08:32;;;;;;;1.97;1.77;;;8.60;99.90;;;;;;5006241;28;20451;-69
2022/02/15 11:11:13;;;;;;;2.60;1.40;;;8.70;99.90;;;;;;4999572;28;20445;-67
2022/02/15 11:13:39;;;;;;;2.63;1.50;;;8.70;99.90;;;;;;5003299;28;20820;-67
2022/02/15 11:16:19;;;;;;;2.63;1.53;;;8.80;99.90;;;;;;4998575;28;20449;-67
2022/02/15 11:18:45;;;;;;;3.60;1.63;;;8.90;99.90;;;;;;4998012;28;20445;-67
2022/02/15 11:21:27;;;;;;;9.90;5.80;;;9.10;99.90;;;;;;4997016;28;20923;-67
2022/02/15 11:23:58;;;;;;;3.23;1.93;;;9.20;99.90;;;;;;4996607;28;20547;-67
2022/02/15 11:26:41;;;;;;;3.40;1.50;;;9.20;99.90;;;;;;5008312;28;20434;-67
2022/02/15 11:29:19;;;;;;;2.00;1.40;;;9.30;99.90;;;;;;5000362;28;20438;-66
2022/02/15 11:31:44;;;;;;;1.70;1.30;;;9.40;99.90;;;;;;4996027;28;20947;-64
2022/02/15 11:34:12;;;;;;;1.70;1.60;;;9.40;99.90;;;;;;5003023;28;20465;-66
2022/02/15 11:36:48;;;;;;;1.80;1.50;;;9.30;99.90;;;;;;4997565;28;20187;-66
2022/02/15 11:39:19;;;;;;;1.43;1.33;;;9.10;99.90;;;;;;4992613;28;21048;-66
2022/02/15 11:41:48;;;;;;;4.47;3.10;;;9.10;99.90;;;;;;4998836;28;20439;-65
2022/02/15 11:44:14;;;;;;;2.70;1.53;;;9.10;99.90;;;;;;5004657;28;20667;-67
2022/02/15 11:46:43;;;;;;;1.90;1.47;;;9.30;99.90;;;;;;4998060;28;20433;-67
2022/02/15 11:49:14;;;;;;;1.80;1.70;;;9.30;99.90;;;;;;4998953;28;20462;-66
2022/02/15 11:51:41;;;;;;;2.90;1.63;;;9.30;99.90;;;;;;4998118;28;20442;-67
2022/02/15 11:54:12;;;;;;;3.57;1.57;;;9.30;99.90;;;;;;5005773;28;20460;-66
2022/02/15 11:56:38;;;;;;;2.00;1.47;;;9.40;99.90;;;;;;5013827;28;20844;-63
2022/02/15 11:59:16;;;;;;;1.30;1.20;;;9.50;99.90;;;;;;5006691;28;20524;-68
2022/02/15 12:01:53;;;;;;;2.00;1.40;;;9.60;99.90;;;;;;5025597;28;20807;-67
2022/02/15 12:04:18;;;;;;;1.90;1.70;;;9.60;99.90;;;;;;5000532;28;20493;-68
2022/02/15 12:06:47;;;;;;;4.13;1.63;;;9.50;99.90;;;;;;5009505;28;20472;-68
2022/02/15 12:09:15;;;;;;;5.43;2.43;;;9.50;99.90;;;;;;4997864;28;20198;-68
2022/02/15 12:11:42;;;;;;;3.57;1.70;;;9.50;99.90;;;;;;4994565;28;20442;-67
2022/02/15 12:14:09;;;;;;;3.00;1.70;;;9.50;99.90;;;;;;5001988;28;20486;-67
2022/02/15 12:17:04;;;;;;;4.63;3.03;;;9.70;99.90;;;;;;4989975;28;20802;-67
2022/02/15 12:19:35;;;;;;;1.50;1.40;;;10.60;99.90;;;;;;4982933;28;20507;-67
2022/02/15 12:22:21;;;;;;;1.70;1.60;;;11.70;99.90;;;;;;4986540;28;20810;-68
2022/02/15 12:24:54;;;;;;;3.80;1.67;;;13.10;99.90;;;;;;5001909;28;20834;-68
2022/02/15 12:27:21;;;;;;;2.23;2.03;;;13.70;99.70;;;;;;4998728;28;20508;-67
2022/02/15 12:29:55;;;;;;;4.80;2.73;;;12.70;99.90;;;;;;4989912;28;20442;-68
2022/02/15 12:32:23;;;;;;;5.50;2.13;;;12.00;99.90;;;;;;5000877;28;20441;-67
2022/02/15 12:34:49;;;;;;;2.60;2.07;;;11.00;99.90;;;;;;4993292;28;20481;-67
2022/02/15 12:37:20;;;;;;;3.07;2.00;;;10.30;99.90;;;;;;4999186;28;20446;-67
2022/02/15 12:39:46;;;;;;;2.40;2.10;;;10.00;99.90;;;;;;4992341;28;20520;-67
2022/02/15 12:42:13;;;;;;;2.93;2.37;;;9.80;99.90;;;;;;4992150;28;20441;-66
2022/02/15 12:44:40;;;;;;;3.30;2.17;;;9.70;99.90;;;;;;5000723;28;20974;-67
2022/02/15 12:47:06;;;;;;;7.57;2.17;;;9.80;99.90;;;;;;5004075;28;20458;-68
2022/02/15 12:49:31;;;;;;;2.53;2.13;;;9.70;99.90;;;;;;4996943;28;20434;-67
2022/02/15 12:51:58;;;;;;;4.70;1.87;;;10.00;99.90;;;;;;4997027;28;20489;-68
2022/02/15 12:54:25;;;;;;;2.53;2.00;;;10.60;99.90;;;;;;5006065;28;20219;-67
2022/02/15 12:56:51;;;;;;;2.37;2.17;;;11.00;99.90;;;;;;5003539;28;20946;-68
2022/02/15 12:59:21;;;;;;;2.63;2.40;;;11.10;99.90;;;;;;4994250;28;20529;-68